Mountain Ranch, California
Current Conditions -  °F | °C
As of 6:35 PM on Tuesday 21 Oct 2014 (Local Time) from KO22 Reporting Station
Clear Clear  
Wind Chill: 59°   Ceiling: Unl
Heat Index: 59°   Visibility: 10mi
Dew Point: 37°   Wind: 6mph
Humidity: 45%   Direction: 310°NW
Pressure: 30"   Gusts: NA
Location:  38.23°N, 120.54°W
Report Text: KO22 220135Z AUTO 31005KT 10SM CLR 15/03 A3000 RMK AO1
Loading
Personal Weather Stations






























Interactive Weather Map
Tropical Storm Tracking
New forecast layout! Learn more

10-Day Weather Forecast

Advertisements
Track Severe Weather on mobile